createdAt,value
2022-11-18T00:01:41.393Z,94798.22
2022-11-18T00:04:10.398Z,94788.22
2022-11-18T00:06:38.995Z,94789.56
2022-11-18T00:09:09.653Z,94792.25
2022-11-18T00:11:55.518Z,94790.34
2022-11-18T00:14:27.506Z,94797.91
2022-11-18T00:16:57.829Z,94797.91
2022-11-18T00:19:29.155Z,94788.19
2022-11-18T00:21:58.553Z,94793.84
2022-11-18T00:24:28.774Z,94786.84
2022-11-18T00:26:57.361Z,94783.06
2022-11-18T00:29:28.400Z,94783.84
2022-11-18T00:31:57.576Z,94783.31
2022-11-18T00:34:27.135Z,94778.75
2022-11-18T00:36:55.585Z,94788.19
2022-11-18T00:39:24.864Z,94781.72
2022-11-18T00:42:11.997Z,94786.56
2022-11-18T00:44:40.966Z,94780.38
2022-11-18T00:47:09.462Z,94775.50
2022-11-18T00:49:38.599Z,94771.47
2022-11-18T00:52:07.092Z,94766.91
2022-11-18T00:54:35.578Z,94763.66
2022-11-18T00:57:05.669Z,94760.41
2022-11-18T00:59:35.031Z,94758.22
2022-11-18T01:02:04.175Z,94748.78
2022-11-18T01:04:32.868Z,94752.28
2022-11-18T01:07:01.663Z,94750.94
2022-11-18T01:09:31.012Z,94744.75
2022-11-18T01:12:16.682Z,94738.00
2022-11-18T01:14:46.795Z,94746.63
2022-11-18T01:17:15.336Z,94737.47
2022-11-18T01:19:44.331Z,94731.53
2022-11-18T01:22:12.794Z,94731.25
2022-11-18T01:24:42.395Z,94733.41
2022-11-18T01:27:10.895Z,94738.25
2022-11-18T01:29:40.262Z,94730.16
2022-11-18T01:32:24.418Z,94730.97
2022-11-18T01:34:54.511Z,94737.19
2022-11-18T01:37:23.045Z,94733.66
2022-11-18T01:39:51.747Z,94733.41
2022-11-18T01:42:20.302Z,94735.28
2022-11-18T01:45:00.952Z,94734.75
2022-11-18T01:47:37.017Z,94728.00
2022-11-18T01:50:07.227Z,94721.28
2022-11-18T01:52:37.063Z,94720.16
2022-11-18T01:55:11.976Z,94719.09
2022-11-18T01:57:42.671Z,94692.38
2022-11-18T02:00:12.798Z,94708.31
2022-11-18T02:02:43.622Z,94715.88
2022-11-18T02:05:12.897Z,94715.59
2022-11-18T02:07:44.513Z,94694.81
2022-11-18T02:10:20.831Z,94709.38
2022-11-18T02:12:50.654Z,94711.28
2022-11-18T02:15:34.851Z,94703.75
2022-11-18T02:18:11.261Z,94684.28
2022-11-18T02:20:43.690Z,94709.66
2022-11-18T02:23:44.536Z,94699.97
2022-11-18T02:26:45.771Z,94716.13
2022-11-18T02:29:20.594Z,94696.16
2022-11-18T02:31:56.928Z,94704.53
2022-11-18T02:34:34.615Z,94702.13
2022-11-18T02:37:10.164Z,94694.56
2022-11-18T02:39:45.330Z,94701.56
2022-11-18T02:42:16.884Z,94712.38
2022-11-18T02:44:54.579Z,94702.66
2022-11-18T02:47:25.800Z,94711.28
2022-11-18T02:49:59.419Z,94705.63
2022-11-18T02:52:28.925Z,94711.81
2022-11-18T02:54:59.107Z,94717.22
2022-11-18T02:57:31.083Z,94716.69
2022-11-18T03:00:01.674Z,94725.34
2022-11-18T03:02:30.653Z,94723.69
2022-11-18T03:04:59.829Z,94733.97
2022-11-18T03:07:33.112Z,94726.94
2022-11-18T03:10:02.948Z,94725.56
2022-11-18T03:12:39.915Z,94730.44
2022-11-18T03:15:19.918Z,94728.28
2022-11-18T03:17:59.313Z,94730.97
2022-11-18T03:20:30.280Z,94725.31
2022-11-18T03:23:05.467Z,94732.34
2022-11-18T03:25:38.951Z,94731.00
2022-11-18T03:28:15.741Z,94735.84
2022-11-18T03:30:52.034Z,94733.97
2022-11-18T03:33:26.046Z,94729.09
2022-11-18T03:35:55.746Z,94734.78
2022-11-18T03:38:29.976Z,94722.63
2022-11-18T03:41:03.839Z,94732.34
2022-11-18T03:43:36.914Z,94734.50
2022-11-18T03:46:11.527Z,94738.81
2022-11-18T03:48:46.824Z,94739.34
2022-11-18T03:51:20.257Z,94743.66
2022-11-18T03:53:53.679Z,94740.72
2022-11-18T03:56:26.138Z,94745.56
2022-11-18T03:59:01.187Z,94742.06
2022-11-18T04:01:36.316Z,94749.88
2022-11-18T04:04:05.676Z,94749.59
2022-11-18T04:06:41.418Z,94747.19
2022-11-18T04:09:14.876Z,94746.09
2022-11-18T04:12:06.183Z,94759.31
2022-11-18T04:14:36.811Z,94759.31
2022-11-18T04:17:10.283Z,94734.75
2022-11-18T04:19:38.965Z,94741.78
2022-11-18T04:22:11.370Z,94751.50
2022-11-18T04:24:40.431Z,94738.56
2022-11-18T04:27:10.234Z,94746.66
2022-11-18T04:29:39.138Z,94767.69
2022-11-18T04:32:09.265Z,94761.50
2022-11-18T04:34:37.798Z,94773.09
2022-11-18T04:37:07.395Z,94762.03
2022-11-18T04:39:35.883Z,94771.75
2022-11-18T04:42:05.935Z,94768.22
2022-11-18T04:44:35.659Z,94758.53
2022-11-18T04:47:06.321Z,94770.69
2022-11-18T04:49:37.225Z,94781.47
2022-11-18T04:52:07.073Z,94782.53
2022-11-18T04:54:35.679Z,94780.66
2022-11-18T04:57:04.198Z,94781.47
2022-11-18T04:59:33.398Z,94779.03
2022-11-18T05:02:01.949Z,94783.09
2022-11-18T05:04:33.099Z,94778.22
2022-11-18T05:07:05.438Z,94779.31
2022-11-18T05:09:34.902Z,94773.63
2022-11-18T05:12:20.652Z,94776.06
2022-11-18T05:14:50.735Z,94774.47
2022-11-18T05:17:20.947Z,94765.53
2022-11-18T05:19:49.777Z,94780.66
2022-11-18T05:22:19.714Z,94779.31
2022-11-18T05:24:48.773Z,94767.97
2022-11-18T05:27:18.064Z,94777.16
2022-11-18T05:29:46.875Z,94786.06
2022-11-18T05:32:15.789Z,94780.66
2022-11-18T05:34:44.901Z,94781.72
2022-11-18T05:37:13.783Z,94791.47
2022-11-18T05:39:43.767Z,94791.72
2022-11-18T05:42:30.734Z,94790.66
2022-11-18T05:44:59.285Z,94784.44
2022-11-18T05:47:28.283Z,94766.88
2022-11-18T05:49:56.785Z,94772.28
2022-11-18T05:52:26.282Z,94771.75
2022-11-18T05:54:56.167Z,94771.47
2022-11-18T05:57:25.198Z,94779.31
2022-11-18T05:59:53.634Z,94772.84
2022-11-18T06:02:25.133Z,94771.47
2022-11-18T06:05:00.640Z,94771.22
2022-11-18T06:07:36.647Z,94772.84
2022-11-18T06:10:07.729Z,94774.44
2022-11-18T06:12:40.623Z,94769.88
2022-11-18T06:15:15.192Z,94779.31
2022-11-18T06:17:46.933Z,94768.50
2022-11-18T06:20:16.283Z,94769.84
2022-11-18T06:22:46.721Z,94769.03
2022-11-18T06:25:18.174Z,94748.75
2022-11-18T06:27:48.449Z,94778.47
2022-11-18T06:30:18.809Z,94759.28
2022-11-18T06:32:47.369Z,94772.75
2022-11-18T06:35:16.605Z,94773.88
2022-11-18T06:37:45.378Z,94769.28
2022-11-18T06:40:14.919Z,94774.94
2022-11-18T06:43:02.797Z,94778.72
2022-11-18T06:45:31.477Z,94779.78
2022-11-18T06:48:00.897Z,94778.19
2022-11-18T06:50:32.490Z,94749.59
2022-11-18T06:53:02.499Z,94782.25
2022-11-18T06:55:31.408Z,94780.63
2022-11-18T06:58:01.194Z,94781.44
2022-11-18T07:00:30.622Z,94781.97
2022-11-18T07:02:59.135Z,94791.66
2022-11-18T07:05:27.998Z,94783.56
2022-11-18T07:07:57.020Z,94791.38
2022-11-18T07:10:25.550Z,94795.97
2022-11-18T07:12:54.882Z,94804.09
2022-11-18T07:15:24.711Z,94803.81
2022-11-18T07:17:54.303Z,94815.16
2022-11-18T07:20:22.732Z,94806.81
2022-11-18T07:22:53.740Z,94802.75
2022-11-18T07:25:22.150Z,94806.84
2022-11-18T07:27:51.293Z,94817.13
2022-11-18T07:30:19.991Z,94825.19
2022-11-18T07:32:49.823Z,94824.13
2022-11-18T07:35:19.379Z,94831.66
2022-11-18T07:37:47.951Z,94827.63
2022-11-18T07:40:16.536Z,94831.66
2022-11-18T07:42:45.139Z,94840.84
2022-11-18T07:45:26.270Z,94840.06
2022-11-18T07:47:56.076Z,94841.66
2022-11-18T07:50:24.980Z,94845.16
2022-11-18T07:52:56.671Z,94853.84
2022-11-18T07:55:31.874Z,94857.03
2022-11-18T07:58:00.671Z,94858.94
2022-11-18T08:00:30.065Z,94858.69
2022-11-18T08:03:00.468Z,94867.84
2022-11-18T08:05:29.052Z,94862.19
2022-11-18T08:07:58.684Z,94865.16
2022-11-18T08:10:28.138Z,94873.25
2022-11-18T08:12:57.434Z,94867.31
2022-11-18T08:15:26.637Z,94868.94
2022-11-18T08:17:55.086Z,94874.88
2022-11-18T08:20:27.382Z,94881.34
2022-11-18T08:22:55.823Z,94882.16
2022-11-18T08:25:24.279Z,94890.25
2022-11-18T08:27:53.060Z,94894.31
2022-11-18T08:30:21.628Z,94895.13
2022-11-18T08:32:50.576Z,94898.34
2022-11-18T08:35:19.076Z,94906.16
2022-11-18T08:37:49.803Z,94897.81
2022-11-18T08:40:18.694Z,94915.31
2022-11-18T08:42:47.182Z,94921.75
2022-11-18T08:45:16.301Z,94891.69
2022-11-18T08:47:45.447Z,94925.25
2022-11-18T08:50:13.922Z,94936.03
2022-11-18T08:52:42.464Z,94930.66
2022-11-18T08:55:12.646Z,94923.34
2022-11-18T08:57:41.908Z,94934.38
2022-11-18T09:00:11.971Z,94946.81
2022-11-18T09:02:40.839Z,94934.63
2022-11-18T09:05:10.419Z,94949.72
2022-11-18T09:07:39.046Z,94942.72
2022-11-18T09:10:09.606Z,94954.59
2022-11-18T09:12:39.420Z,94959.13
2022-11-18T09:15:14.320Z,94952.13
2022-11-18T09:17:43.513Z,94957.53
2022-11-18T09:20:12.467Z,94961.06
2022-11-18T09:22:40.994Z,94954.59
2022-11-18T09:25:10.963Z,94962.41
2022-11-18T09:27:41.630Z,94958.41
2022-11-18T09:30:11.115Z,94961.09
2022-11-18T09:32:39.558Z,94967.03
2022-11-18T09:35:08.461Z,94964.88
2022-11-18T09:37:36.920Z,94966.25
2022-11-18T09:40:06.594Z,94968.97
2022-11-18T09:42:52.682Z,94970.31
2022-11-18T09:45:25.806Z,94976.47
2022-11-18T09:47:59.458Z,94978.13
2022-11-18T09:50:49.594Z,94983.19
2022-11-18T09:53:22.188Z,94980.47
2022-11-18T09:55:52.135Z,94977.22
2022-11-18T09:58:31.575Z,94928.44
2022-11-18T10:01:00.212Z,94986.38
2022-11-18T10:03:30.943Z,94979.91
2022-11-18T10:06:07.171Z,94988.81
2022-11-18T10:08:42.131Z,94989.88
2022-11-18T10:11:16.893Z,94996.63
2022-11-18T10:14:01.891Z,94987.22
2022-11-18T10:16:43.742Z,94992.34
2022-11-18T10:19:23.754Z,95000.44
2022-11-18T10:22:08.465Z,95002.34
2022-11-18T10:24:44.035Z,95006.94
2022-11-18T10:27:15.070Z,95007.16
2022-11-18T10:29:47.478Z,95002.03
2022-11-18T10:32:18.679Z,94985.72
2022-11-18T10:34:50.452Z,95009.81
2022-11-18T10:37:52.552Z,95011.69
2022-11-18T10:40:26.037Z,95009.56
2022-11-18T10:42:54.697Z,95014.44
2022-11-18T10:45:30.473Z,95017.97
2022-11-18T10:48:01.512Z,95015.78
2022-11-18T10:50:33.845Z,95019.31
2022-11-18T10:53:02.712Z,95017.41
2022-11-18T10:55:32.322Z,94995.19
2022-11-18T10:58:08.828Z,95012.50
2022-11-18T11:00:49.515Z,95015.72
2022-11-18T11:03:33.235Z,95027.34
2022-11-18T11:06:38.718Z,95019.78
2022-11-18T11:09:11.425Z,95013.31
2022-11-18T11:11:43.547Z,95009.75
2022-11-18T11:14:21.623Z,95026.75
2022-11-18T11:17:00.014Z,95019.72
2022-11-18T11:19:45.131Z,95019.72
2022-11-18T11:22:14.731Z,95013.78
2022-11-18T11:24:43.288Z,95011.38
2022-11-18T11:30:20.315Z,95019.47
2022-11-18T11:33:19.401Z,95021.34
2022-11-18T11:36:15.504Z,95012.72
2022-11-18T11:39:01.344Z,95020.00
2022-11-18T11:41:47.886Z,95020.81
2022-11-18T11:44:31.363Z,95026.66
2022-11-18T11:47:30.021Z,95020.41
2022-11-18T11:50:03.404Z,95022.28
2022-11-18T11:52:42.083Z,95039.09
2022-11-18T11:55:19.777Z,95037.66
2022-11-18T11:58:03.156Z,95040.63
2022-11-18T12:00:40.562Z,95036.88
2022-11-18T12:03:28.228Z,95035.25
2022-11-18T12:05:58.083Z,95035.00
2022-11-18T12:08:30.351Z,95029.94
2022-11-18T12:11:09.224Z,95040.72
2022-11-18T12:13:44.208Z,95032.09
2022-11-18T12:16:24.537Z,95034.56
2022-11-18T12:19:00.454Z,95039.16
2022-11-18T12:21:56.305Z,95041.63
2022-11-18T12:24:34.184Z,95035.69
2022-11-18T12:27:04.784Z,95041.34
2022-11-18T12:29:42.463Z,95039.97
2022-11-18T12:32:28.419Z,95037.84
2022-11-18T12:35:00.857Z,95037.03
2022-11-18T12:37:58.802Z,95037.53
2022-11-18T12:40:40.460Z,95039.16
2022-11-18T12:44:05.888Z,95040.78
2022-11-18T12:47:00.050Z,95050.22
2022-11-18T12:50:11.408Z,95048.59
2022-11-18T12:52:52.417Z,95044.22
2022-11-18T12:55:26.263Z,95054.75
2022-11-18T12:57:54.702Z,95037.94
2022-11-18T13:00:33.439Z,95055.06
2022-11-18T13:03:03.437Z,95056.69
2022-11-18T13:05:34.695Z,95054.75
2022-11-18T13:08:14.946Z,95057.69
2022-11-18T13:10:53.174Z,95054.50
2022-11-18T13:13:27.463Z,95049.88
2022-11-18T13:16:16.996Z,95056.91
2022-11-18T13:18:53.198Z,95057.44
2022-11-18T13:21:41.235Z,95064.16
2022-11-18T13:24:14.551Z,95055.72
2022-11-18T13:26:45.007Z,95065.47
2022-11-18T13:29:28.225Z,95062.78
2022-11-18T13:32:16.162Z,95054.13
2022-11-18T13:34:49.100Z,95058.69
2022-11-18T13:37:21.484Z,95065.72
2022-11-18T13:39:50.994Z,95058.44
2022-11-18T13:42:22.038Z,95062.78
2022-11-18T13:44:56.094Z,95057.88
2022-11-18T13:47:29.623Z,95057.88
2022-11-18T13:50:06.297Z,95064.09
2022-11-18T13:52:39.851Z,95065.25
2022-11-18T13:55:15.150Z,95068.75
2022-11-18T13:57:48.285Z,95073.38
2022-11-18T14:00:25.128Z,95066.88
2022-11-18T14:02:59.222Z,95067.38
2022-11-18T14:05:29.606Z,95073.56
2022-11-18T14:08:08.055Z,95077.56
2022-11-18T14:10:44.356Z,95074.84
2022-11-18T14:13:22.132Z,95080.69
2022-11-18T14:15:51.176Z,95092.25
2022-11-18T14:18:26.074Z,95096.25
2022-11-18T14:20:56.224Z,95074.41
2022-11-18T14:23:30.210Z,95083.81
2022-11-18T14:26:00.858Z,95088.63
2022-11-18T14:28:33.801Z,95092.66
2022-11-18T14:31:06.716Z,95094.00
2022-11-18T14:33:36.642Z,95098.81
2022-11-18T14:36:13.206Z,95103.69
2022-11-18T14:41:50.194Z,95105.63
2022-11-18T14:44:19.837Z,95110.78
2022-11-18T14:46:52.503Z,95108.31
2022-11-18T14:49:23.656Z,95102.91
2022-11-18T14:51:56.228Z,95112.06
2022-11-18T14:54:27.449Z,95108.78
2022-11-18T14:56:59.445Z,95110.97
2022-11-18T14:59:28.342Z,95116.91
2022-11-18T15:01:58.545Z,95111.47
2022-11-18T15:04:27.913Z,95126.56
2022-11-18T15:06:58.224Z,95123.06
2022-11-18T15:09:26.645Z,95130.31
2022-11-18T15:11:55.008Z,95118.75
2022-11-18T15:14:23.913Z,95122.25
2022-11-18T15:16:52.578Z,95125.47
2022-11-18T15:19:20.937Z,95128.66
2022-11-18T15:21:49.397Z,95134.09
2022-11-18T15:24:19.897Z,95140.03
2022-11-18T15:26:50.276Z,95145.94
2022-11-18T15:29:20.435Z,95143.25
2022-11-18T15:31:50.149Z,95145.44
2022-11-18T15:34:21.619Z,95135.69
2022-11-18T15:36:51.394Z,95147.31
2022-11-18T15:39:21.270Z,95146.00
2022-11-18T15:41:49.958Z,95150.25
2022-11-18T15:44:19.128Z,95157.28
2022-11-18T15:46:48.385Z,95148.63
2022-11-18T15:49:17.928Z,95157.28
2022-11-18T15:51:46.593Z,95154.28
2022-11-18T15:54:15.006Z,95161.31
2022-11-18T15:56:44.766Z,95157.78
2022-11-18T15:59:15.448Z,95164.81
2022-11-18T16:01:45.354Z,95169.38
2022-11-18T16:04:16.453Z,95168.06
2022-11-18T16:06:45.333Z,95153.78
2022-11-18T16:09:15.206Z,95169.69
2022-11-18T16:12:02.511Z,95174.25
2022-11-18T16:14:31.759Z,95167.81
2022-11-18T16:17:00.919Z,95167.31
2022-11-18T16:19:33.819Z,95171.88
2022-11-18T16:22:02.662Z,95173.50
2022-11-18T16:24:31.930Z,95169.69
2022-11-18T16:27:04.707Z,95170.25
2022-11-18T16:29:34.259Z,95179.41
2022-11-18T16:32:02.928Z,95189.94
2022-11-18T16:34:31.446Z,95185.63
2022-11-18T16:37:01.377Z,95179.41
2022-11-18T16:39:30.283Z,95187.19
2022-11-18T16:42:08.255Z,95191.84
2022-11-18T16:44:38.166Z,95194.31
2022-11-18T16:47:14.263Z,95191.63
2022-11-18T16:49:44.172Z,95201.16
2022-11-18T16:52:13.233Z,95205.22
2022-11-18T16:54:45.578Z,95207.03
2022-11-18T16:57:16.682Z,95209.47
2022-11-18T16:59:45.638Z,95201.16
2022-11-18T17:02:14.829Z,95210.34
2022-11-18T17:04:44.467Z,95219.19
2022-11-18T17:07:13.102Z,95226.19
2022-11-18T17:09:42.336Z,95219.75
2022-11-18T17:12:10.815Z,95216.47
2022-11-18T17:14:41.642Z,95220.06
2022-11-18T17:17:10.065Z,95221.94
2022-11-18T17:19:38.913Z,95231.72
2022-11-18T17:22:07.594Z,95219.56
2022-11-18T17:24:37.112Z,95229.00
2022-11-18T17:27:05.788Z,95228.25
2022-11-18T17:29:34.644Z,95238.66
2022-11-18T17:32:04.834Z,95232.06
2022-11-18T17:34:33.433Z,95221.84
2022-11-18T17:37:06.790Z,95225.53
2022-11-18T17:39:36.568Z,95241.38
2022-11-18T17:42:19.061Z,95240.16
2022-11-18T17:44:48.143Z,95223.59
2022-11-18T17:47:18.326Z,95220.00
2022-11-18T17:49:47.633Z,95242.13
2022-11-18T17:52:16.137Z,95253.78
2022-11-18T17:54:45.584Z,95259.50
2022-11-18T17:57:14.651Z,95255.19
2022-11-18T17:59:43.100Z,95253.22
2022-11-18T18:02:13.450Z,95271.59
2022-11-18T18:04:43.391Z,95258.47
2022-11-18T18:07:12.044Z,95272.09
2022-11-18T18:09:41.429Z,95283.69
2022-11-18T18:12:23.770Z,95289.38
2022-11-18T18:14:52.597Z,95280.91
2022-11-18T18:17:21.342Z,95288.66
2022-11-18T18:19:51.274Z,95282.91
2022-11-18T18:22:20.266Z,95287.56
2022-11-18T18:24:48.766Z,95280.97
2022-11-18T18:27:17.684Z,95298.09
2022-11-18T18:29:46.085Z,95283.38
2022-11-18T18:32:15.038Z,95296.09
2022-11-18T18:34:43.471Z,95277.63
2022-11-18T18:37:13.806Z,95289.84
2022-11-18T18:39:42.672Z,95281.09
2022-11-18T18:42:11.118Z,95272.91
2022-11-18T18:45:03.428Z,95298.34
2022-11-18T18:47:32.555Z,95304.81
2022-11-18T18:50:00.959Z,95305.50
2022-11-18T18:52:32.453Z,95306.28
2022-11-18T18:55:01.310Z,95311.16
2022-11-18T18:57:30.054Z,95311.22
2022-11-18T18:59:58.473Z,95299.00
2022-11-18T19:02:29.259Z,95312.75
2022-11-18T19:04:59.779Z,95314.13
2022-11-18T19:07:31.730Z,95309.78
2022-11-18T19:10:01.999Z,95319.72
2022-11-18T19:12:46.716Z,95332.38
2022-11-18T19:15:15.956Z,95315.06
2022-11-18T19:17:47.139Z,95321.34
2022-11-18T19:20:36.635Z,95330.31
2022-11-18T19:23:10.493Z,95327.66
2022-11-18T19:25:41.230Z,95331.22
2022-11-18T19:28:11.400Z,95334.72
2022-11-18T19:30:40.135Z,95344.78
2022-11-18T19:33:08.729Z,95342.88
2022-11-18T19:35:38.614Z,95333.09
2022-11-18T19:38:07.047Z,95341.59
2022-11-18T19:40:36.516Z,95345.53
2022-11-18T19:43:06.837Z,95350.44
2022-11-18T19:45:35.281Z,95341.97
2022-11-18T19:48:04.615Z,95338.75
2022-11-18T19:50:33.249Z,95351.63
2022-11-18T19:53:23.211Z,95340.72
2022-11-18T19:55:56.207Z,95343.44
2022-11-18T19:58:27.634Z,95339.41
2022-11-18T20:00:56.367Z,95339.41
2022-11-18T20:03:26.008Z,95330.31
2022-11-18T20:05:54.706Z,95331.34
2022-11-18T20:08:26.610Z,95323.09
2022-11-18T20:10:55.192Z,95341.19
2022-11-18T20:13:24.653Z,95355.00
2022-11-18T20:15:54.523Z,95350.69
2022-11-18T20:18:25.344Z,95358.25
2022-11-18T20:20:54.056Z,95359.81
2022-11-18T20:23:23.177Z,95362.75
2022-11-18T20:25:52.417Z,95351.97
2022-11-18T20:28:21.085Z,95354.84
2022-11-18T20:30:56.694Z,95359.75
2022-11-18T20:33:25.389Z,95364.06
2022-11-18T20:35:55.388Z,95370.53
2022-11-18T20:38:24.606Z,95365.41
2022-11-18T20:40:53.914Z,95369.22
2022-11-18T20:43:22.938Z,95380.34
2022-11-18T20:45:55.275Z,95374.34
2022-11-18T20:48:25.275Z,95374.31
2022-11-18T20:50:54.187Z,95380.72
2022-11-18T20:53:25.957Z,95373.50
2022-11-18T20:55:54.653Z,95378.88
2022-11-18T20:58:24.007Z,95383.69
2022-11-18T21:00:54.573Z,95379.91
2022-11-18T21:03:27.751Z,95384.50
2022-11-18T21:05:56.484Z,95395.06
2022-11-18T21:08:27.249Z,95394.69
2022-11-18T21:10:55.662Z,95399.75
2022-11-18T21:13:42.634Z,95407.44
2022-11-18T21:16:10.977Z,95400.84
2022-11-18T21:18:41.219Z,95394.81
2022-11-18T21:21:27.476Z,95391.94
2022-11-18T21:23:56.247Z,95409.19
2022-11-18T21:26:25.466Z,95398.09
2022-11-18T21:28:55.874Z,95414.75
2022-11-18T21:31:26.046Z,95403.66
2022-11-18T21:33:57.478Z,95410.44
2022-11-18T21:36:28.372Z,95410.69
2022-11-18T21:38:58.160Z,95409.88
2022-11-18T21:41:27.646Z,95415.25
2022-11-18T21:44:05.922Z,95416.88
2022-11-18T21:46:36.331Z,95423.59
2022-11-18T21:49:06.608Z,95397.72
2022-11-18T21:51:36.927Z,95428.09
2022-11-18T21:54:06.234Z,95426.75
2022-11-18T21:56:35.140Z,95429.47
2022-11-18T21:59:03.837Z,95431.03
2022-11-18T22:01:33.826Z,95433.72
2022-11-18T22:04:03.954Z,95422.72
2022-11-18T22:06:35.824Z,95418.13
2022-11-18T22:09:06.414Z,95434.06
2022-11-18T22:11:34.797Z,95429.13
2022-11-18T22:14:04.884Z,95428.81
2022-11-18T22:16:33.263Z,95435.28
2022-11-18T22:19:07.975Z,95437.16
2022-11-18T22:21:38.602Z,95434.13
2022-11-18T22:24:07.913Z,95441.38
2022-11-18T22:26:37.513Z,95445.16
2022-11-18T22:29:06.074Z,95443.78
2022-11-18T22:31:35.462Z,95451.75
2022-11-18T22:34:03.900Z,95458.22
2022-11-18T22:36:33.179Z,95454.94
2022-11-18T22:39:03.763Z,95460.22
2022-11-18T22:41:49.694Z,95463.50
2022-11-18T22:44:19.226Z,95466.28
2022-11-18T22:46:47.598Z,95463.84
2022-11-18T22:49:17.073Z,95462.44
2022-11-18T22:51:46.232Z,95457.28
2022-11-18T22:54:38.453Z,95454.59
2022-11-18T22:57:05.682Z,95461.88
2022-11-18T22:59:34.602Z,95465.13
2022-11-18T23:02:03.016Z,95460.78
2022-11-18T23:04:32.179Z,95455.16
2022-11-18T23:07:00.589Z,95458.91
2022-11-18T23:09:30.896Z,95463.50
2022-11-18T23:12:17.040Z,95456.47
2022-11-18T23:14:47.174Z,95464.56
2022-11-18T23:17:16.060Z,95467.81
2022-11-18T23:19:46.606Z,95463.50
2022-11-18T23:22:15.906Z,95467.56
2022-11-18T23:24:45.585Z,95467.56
2022-11-18T23:27:14.770Z,95467.00
2022-11-18T23:29:43.125Z,95460.56
2022-11-18T23:32:12.441Z,95466.75
2022-11-18T23:34:40.884Z,95457.13
2022-11-18T23:37:09.819Z,95464.97
2022-11-18T23:39:38.658Z,95456.97
2022-11-18T23:42:08.461Z,95465.88
2022-11-18T23:44:53.128Z,95461.00
2022-11-18T23:47:21.507Z,95466.03
2022-11-18T23:49:50.800Z,95465.47
2022-11-18T23:52:19.747Z,95458.91
2022-11-18T23:54:50.060Z,95464.66
2022-11-18T23:57:19.773Z,95457.84
2022-11-18T23:59:49.070Z,95467.34
